Time,TemperatureF,DewpointF,PressureIn,WindDirection,WindDirectionDegrees,WindSpeedMPH,WindSpeedGustMPH,Humidity,HourlyPrecipIn,Conditions,Clouds,dailyrainin,SoftwareType,DateUTC
2013-04-14 00:00:00,40.1,-42.1,28.13,SSW,202,0.0,0.0,2,0.00,CLR,SKC,0.06,WeatherDisplay:10.37,2013-04-14 04:00:00,
2013-04-14 00:05:00,40.1,-42.1,28.13,SSE,157,0.0,0.0,2,0.00,RA,SKC,0.00,WeatherDisplay:10.37,2013-04-14 04:05:00,
2013-04-14 00:10:00,40.1,-53.6,28.13,SSE,157,0.0,0.0,1,0.00,CLR,SKC,0.00,WeatherDisplay:10.37,2013-04-14 04:10:00,
2013-04-14 00:15:00,40.1,-53.6,28.13,SW,225,0.0,0.0,1,0.00,CLR,SKC,0.00,WeatherDisplay:10.37,2013-04-14 04:15:00,
2013-04-14 00:20:00,40.1,99.9,28.13,WSW,247,0.5,4.6,0,0.00,CLR,SKC,0.00,WeatherDisplay:10.37,2013-04-14 04:20:00,
2013-04-14 00:25:00,41.1,99.9,28.13,South,180,1.5,5.8,0,0.00,CLR,SKC,0.00,WeatherDisplay:10.37,2013-04-14 04:25:00,
2013-04-14 00:30:00,41.1,99.9,28.13,SE,135,0.3,2.3,0,0.00,CLR,SKC,0.00,WeatherDisplay:10.37,2013-04-14 04:30:00,
2013-04-14 00:35:00,41.1,99.9,28.13,SSW,202,0.8,2.3,0,0.00,CLR,SKC,0.00,WeatherDisplay:10.37,2013-04-14 04:35:00,
2013-04-14 00:40:00,41.1,99.9,28.13,SW,225,0.2,2.3,0,0.00,CLR,SKC,0.00,WeatherDisplay:10.37,2013-04-14 04:40:00,
2013-04-14 00:45:00,41.1,99.9,28.13,SW,225,0.8,5.0,0,0.00,CLR,SKC,0.00,WeatherDisplay:10.37,2013-04-14 04:45:00,
2013-04-14 00:50:00,41.1,99.9,28.13,SSW,202,1.3,3.5,0,0.00,CLR,SKC,0.00,WeatherDisplay:10.37,2013-04-14 04:50:00,
2013-04-14 00:55:00,41.1,99.9,28.13,SSW,202,0.3,1.2,0,0.00,CLR,SKC,0.00,WeatherDisplay:10.37,2013-04-14 04:55:00,
2013-04-14 01:00:00,41.1,99.9,28.13,SW,225,0.0,0.0,0,0.00,CLR,SKC,0.00,WeatherDisplay:10.37,2013-04-14 05:00:00,
2013-04-14 01:05:00,41.1,99.9,28.13,WSW,247,0.0,0.0,0,0.00,CLR,SKC,0.00,WeatherDisplay:10.37,2013-04-14 05:05:00,
2013-04-14 01:10:00,41.1,99.9,28.13,WSW,247,0.2,3.5,0,0.00,CLR,SKC,0.00,WeatherDisplay:10.37,2013-04-14 05:10:00,
2013-04-14 01:15:00,41.1,99.9,28.13,WSW,247,0.2,0.0,0,0.00,CLR,SKC,0.00,WeatherDisplay:10.37,2013-04-14 05:15:00,
2013-04-14 01:20:00,41.1,99.9,28.13,WSW,247,0.0,0.0,0,0.00,CLR,SKC,0.00,WeatherDisplay:10.37,2013-04-14 05:20:00,
2013-04-14 01:25:00,41.1,99.9,28.13,SSW,202,0.3,2.3,0,0.00,CLR,SKC,0.00,WeatherDisplay:10.37,2013-04-14 05:25:00,
2013-04-14 01:30:00,40.1,99.9,28.13,WSW,247,0.0,0.0,0,0.00,CLR,SKC,0.00,WeatherDisplay:10.37,2013-04-14 05:30:00,
2013-04-14 01:35:00,40.1,99.9,28.12,SW,225,0.0,0.0,0,0.00,CLR,SKC,0.00,WeatherDisplay:10.37,2013-04-14 05:35:00,
2013-04-14 01:40:00,40.1,99.9,28.12,WSW,247,0.0,0.0,0,0.00,CLR,SKC,0.00,WeatherDisplay:10.37,2013-04-14 05:40:00,
2013-04-14 01:45:00,39.1,99.9,28.12,WSW,247,0.0,0.0,0,0.00,CLR,SKC,0.00,WeatherDisplay:10.37,2013-04-14 05:45:00,
2013-04-14 01:50:00,39.1,99.9,28.12,WSW,247,0.0,0.0,0,0.00,CLR,SKC,0.00,WeatherDisplay:10.37,2013-04-14 05:50:00,
2013-04-14 01:55:00,39.1,99.9,28.11,WSW,247,0.0,0.0,0,0.00,CLR,SKC,0.00,WeatherDisplay:10.37,2013-04-14 05:55:00,
2013-04-14 02:00:00,39.1,99.9,28.11,WSW,247,0.0,0.0,0,0.00,CLR,SKC,0.00,WeatherDisplay:10.37,2013-04-14 06:00:00,
2013-04-14 02:05:00,38.1,99.9,28.11,WSW,247,0.0,0.0,0,0.00,CLR,SKC,0.00,WeatherDisplay:10.37,2013-04-14 06:05:00,
2013-04-14 02:10:00,38.1,99.9,28.11,WSW,247,0.0,0.0,0,0.00,CLR,SKC,0.00,WeatherDisplay:10.37,2013-04-14 06:10:00,
2013-04-14 02:15:00,38.1,99.9,28.12,WSW,247,0.0,0.0,0,0.00,CLR,SKC,0.00,WeatherDisplay:10.37,2013-04-14 06:15:00,
2013-04-14 02:20:00,38.1,99.9,28.12,WSW,247,0.0,0.0,0,0.00,CLR,SKC,0.00,WeatherDisplay:10.37,2013-04-14 06:20:00,
2013-04-14 02:25:00,38.1,99.9,28.11,WSW,247,0.0,0.0,0,0.00,CLR,SKC,0.00,WeatherDisplay:10.37,2013-04-14 06:25:00,
2013-04-14 02:30:00,38.1,99.9,28.11,WSW,247,0.0,0.0,0,0.00,CLR,SKC,0.00,WeatherDisplay:10.37,2013-04-14 06:30:00,
2013-04-14 02:35:00,38.1,99.9,28.12,WSW,247,0.0,0.0,0,0.00,CLR,SKC,0.00,WeatherDisplay:10.37,2013-04-14 06:35:00,
2013-04-14 02:40:00,38.1,99.9,28.12,WSW,247,0.0,0.0,0,0.00,CLR,SKC,0.00,WeatherDisplay:10.37,2013-04-14 06:40:00,
2013-04-14 02:45:00,38.1,99.9,28.12,WSW,247,0.0,1.2,0,0.00,CLR,SKC,0.00,WeatherDisplay:10.37,2013-04-14 06:45:00,
2013-04-14 02:50:00,38.1,99.9,28.12,SW,225,0.0,0.0,0,0.00,CLR,SKC,0.00,WeatherDisplay:10.37,2013-04-14 06:50:00,
2013-04-14 02:55:00,38.1,99.9,28.11,WSW,247,0.0,0.0,0,0.00,CLR,SKC,0.00,WeatherDisplay:10.37,2013-04-14 06:55:00,
2013-04-14 03:00:00,38.1,99.9,28.11,SW,225,0.0,0.0,0,0.00,CLR,SKC,0.00,WeatherDisplay:10.37,2013-04-14 07:00:00,
2013-04-14 03:05:00,39.1,99.9,28.12,WSW,247,0.0,0.0,0,0.00,CLR,SKC,0.00,WeatherDisplay:10.37,2013-04-14 07:05:00,
2013-04-14 03:10:00,38.1,99.9,28.12,SSW,202,0.3,1.2,0,0.00,CLR,SKC,0.00,WeatherDisplay:10.37,2013-04-14 07:10:00,
2013-04-14 03:15:00,38.1,99.9,28.11,SSW,202,0.0,0.0,0,0.00,CLR,SKC,0.00,WeatherDisplay:10.37,2013-04-14 07:15:00,
2013-04-14 03:20:00,39.1,99.9,28.11,SW,225,0.5,2.3,0,0.00,CLR,SKC,0.00,WeatherDisplay:10.37,2013-04-14 07:20:00,
2013-04-14 03:25:00,39.1,99.9,28.12,WSW,247,0.3,2.3,0,0.00,CLR,SKC,0.00,WeatherDisplay:10.37,2013-04-14 07:25:00,
2013-04-14 03:30:00,39.1,99.9,28.12,WSW,247,0.4,3.5,0,0.00,CLR,SKC,0.00,WeatherDisplay:10.37,2013-04-14 07:30:00,
2013-04-14 03:35:00,39.1,99.9,28.12,SSW,202,0.7,2.3,0,0.00,CLR,SKC,0.00,WeatherDisplay:10.37,2013-04-14 07:35:00,
2013-04-14 03:40:00,39.1,99.9,28.12,WSW,247,0.3,3.5,0,0.00,CLR,SKC,0.00,WeatherDisplay:10.37,2013-04-14 07:40:00,
2013-04-14 03:45:00,39.1,99.9,28.11,WSW,247,0.7,3.0,0,0.00,CLR,SKC,0.00,WeatherDisplay:10.37,2013-04-14 07:45:00,
2013-04-14 03:50:00,39.1,99.9,28.11,West,270,0.3,3.5,0,0.00,CLR,SKC,0.00,WeatherDisplay:10.37,2013-04-14 07:50:00,
2013-04-14 03:55:00,39.1,99.9,28.11,WSW,247,0.0,0.0,0,0.00,CLR,SKC,0.00,WeatherDisplay:10.37,2013-04-14 07:55:00,
2013-04-14 04:00:00,40.1,99.9,28.11,WSW,247,2.1,4.6,0,0.00,CLR,SKC,0.00,WeatherDisplay:10.37,2013-04-14 08:00:00,
2013-04-14 04:05:00,39.1,99.9,28.11,WSW,247,0.0,0.0,0,0.00,CLR,SKC,0.00,WeatherDisplay:10.37,2013-04-14 08:05:00,
2013-04-14 04:10:00,40.1,99.9,28.11,WSW,247,0.3,2.3,0,0.00,CLR,SKC,0.00,WeatherDisplay:10.37,2013-04-14 08:10:00,
2013-04-14 04:15:00,39.1,99.9,28.11,West,270,0.3,3.5,0,0.00,CLR,SKC,0.00,WeatherDisplay:10.37,2013-04-14 08:15:00,
2013-04-14 04:20:00,39.1,99.9,28.11,NW,315,0.3,1.2,0,0.00,CLR,SKC,0.00,WeatherDisplay:10.37,2013-04-14 08:20:00,
2013-04-14 04:25:00,39.1,99.9,28.12,NNW,337,0.1,1.0,0,0.00,CLR,SKC,0.00,WeatherDisplay:10.37,2013-04-14 08:25:00,
2013-04-14 04:30:00,39.1,99.9,28.12,WSW,247,0.0,0.0,0,0.00,CLR,SKC,0.00,WeatherDisplay:10.37,2013-04-14 08:30:00,
2013-04-14 04:35:00,39.1,99.9,28.12,WNW,292,0.0,0.0,0,0.00,CLR,SKC,0.00,WeatherDisplay:10.37,2013-04-14 08:35:00,
2013-04-14 04:40:00,39.1,99.9,28.12,WNW,292,0.0,0.0,0,0.00,CLR,SKC,0.00,WeatherDisplay:10.37,2013-04-14 08:40:00,
2013-04-14 04:45:00,39.1,99.9,28.12,WNW,292,0.0,0.0,0,0.00,CLR,SKC,0.00,WeatherDisplay:10.37,2013-04-14 08:45:00,
2013-04-14 04:50:00,38.1,99.9,28.12,WNW,292,0.0,0.0,0,0.00,CLR,SKC,0.00,WeatherDisplay:10.37,2013-04-14 08:50:00,
2013-04-14 04:55:00,38.1,99.9,28.12,WSW,247,0.0,0.0,0,0.00,CLR,SKC,0.00,WeatherDisplay:10.37,2013-04-14 08:55:00,
2013-04-14 05:00:00,38.1,99.9,28.12,WNW,292,0.5,2.3,0,0.00,CLR,SKC,0.00,WeatherDisplay:10.37,2013-04-14 09:00:00,
2013-04-14 05:05:00,39.1,99.9,28.12,WSW,247,0.2,3.5,0,0.00,CLR,SKC,0.00,WeatherDisplay:10.37,2013-04-14 09:05:00,
2013-04-14 05:10:00,39.1,99.9,28.12,WSW,247,1.1,4.6,0,0.00,CLR,SKC,0.00,WeatherDisplay:10.37,2013-04-14 09:10:00,
2013-04-14 05:15:00,40.1,99.9,28.12,WNW,292,0.6,2.3,0,0.00,CLR,SKC,0.00,WeatherDisplay:10.37,2013-04-14 09:15:00,
2013-04-14 05:20:00,40.1,99.9,28.12,WSW,247,1.3,4.0,0,0.00,CLR,SKC,0.00,WeatherDisplay:10.37,2013-04-14 09:20:00,
2013-04-14 05:25:00,41.1,99.9,28.12,WNW,292,0.5,2.3,0,0.00,CLR,SKC,0.00,WeatherDisplay:10.37,2013-04-14 09:25:00,
2013-04-14 05:30:00,41.1,99.9,28.12,SW,225,0.7,3.5,0,0.00,CLR,SKC,0.00,WeatherDisplay:10.37,2013-04-14 09:30:00,
2013-04-14 05:35:00,41.1,99.9,28.12,WSW,247,1.1,3.5,0,0.00,CLR,SKC,0.00,WeatherDisplay:10.37,2013-04-14 09:35:00,
2013-04-14 05:40:00,41.1,99.9,28.12,WSW,247,1.1,3.5,0,0.00,CLR,SKC,0.00,WeatherDisplay:10.37,2013-04-14 09:40:00,
2013-04-14 05:45:00,41.1,99.9,28.13,SW,225,0.0,0.0,0,0.00,CLR,SKC,0.00,WeatherDisplay:10.37,2013-04-14 09:45:00,
2013-04-14 05:50:00,41.1,99.9,28.13,WSW,247,0.3,1.2,0,0.00,CLR,SKC,0.00,WeatherDisplay:10.37,2013-04-14 09:50:00,
2013-04-14 05:55:00,41.1,99.9,28.14,West,270,0.0,0.0,0,0.00,CLR,SKC,0.00,WeatherDisplay:10.37,2013-04-14 09:55:00,
2013-04-14 06:00:00,41.1,99.9,28.14,WSW,247,0.4,3.5,0,0.00,CLR,SKC,0.00,WeatherDisplay:10.37,2013-04-14 10:00:00,
2013-04-14 06:05:00,41.1,99.9,28.14,WSW,247,0.0,0.0,0,0.00,CLR,SKC,0.00,WeatherDisplay:10.37,2013-04-14 10:05:00,
2013-04-14 06:10:00,41.1,99.9,28.14,WSW,247,0.0,0.0,0,0.00,CLR,SKC,0.00,WeatherDisplay:10.37,2013-04-14 10:10:00,
2013-04-14 06:15:00,42.1,99.9,28.14,WSW,247,0.0,0.0,0,0.00,CLR,SKC,0.00,WeatherDisplay:10.37,2013-04-14 10:15:00,
2013-04-14 06:20:00,42.1,99.9,28.14,West,270,0.0,1.2,0,0.00,CLR,SKC,0.00,WeatherDisplay:10.37,2013-04-14 10:20:00,
2013-04-14 06:25:00,42.1,99.9,28.15,WSW,247,0.0,0.0,0,0.00,CLR,SKC,0.00,WeatherDisplay:10.37,2013-04-14 10:25:00,
2013-04-14 06:30:00,42.1,99.9,28.15,West,270,0.0,0.0,0,0.00,CLR,SKC,0.00,WeatherDisplay:10.37,2013-04-14 10:30:00,
2013-04-14 06:35:00,42.1,99.9,28.16,WNW,292,0.0,0.0,0,0.00,CLR,SKC,0.00,WeatherDisplay:10.37,2013-04-14 10:35:00,
2013-04-14 06:40:00,42.1,99.9,28.16,West,270,0.4,1.2,0,0.00,CLR,SKC,0.00,WeatherDisplay:10.37,2013-04-14 10:40:00,
2013-04-14 06:45:00,42.1,99.9,28.16,WNW,292,0.0,0.0,0,0.00,CLR,SKC,0.00,WeatherDisplay:10.37,2013-04-14 10:45:00,
2013-04-14 06:50:00,42.1,99.9,28.16,West,270,0.0,0.0,0,0.00,CLR,SKC,0.00,WeatherDisplay:10.37,2013-04-14 10:50:00,
2013-04-14 06:55:00,42.1,99.9,28.17,WSW,247,0.0,0.0,0,0.00,CLR,SKC,0.00,WeatherDisplay:10.37,2013-04-14 10:55:00,
2013-04-14 07:00:00,43.1,99.9,28.17,West,270,0.0,0.0,0,0.00,CLR,SKC,0.00,WeatherDisplay:10.37,2013-04-14 11:00:00,
2013-04-14 07:05:00,43.1,99.9,28.17,WSW,247,0.1,1.2,0,0.00,CLR,SKC,0.00,WeatherDisplay:10.37,2013-04-14 11:05:00,
2013-04-14 07:10:00,43.1,99.9,28.17,WSW,247,0.0,0.0,0,0.00,CLR,SKC,0.00,WeatherDisplay:10.37,2013-04-14 11:10:00,
2013-04-14 07:15:00,43.1,99.9,28.16,WSW,247,0.0,0.0,0,0.00,CLR,SKC,0.00,WeatherDisplay:10.37,2013-04-14 11:15:00,
2013-04-14 07:20:00,43.1,99.9,28.16,WSW,247,0.1,0.0,0,0.00,CLR,SKC,0.00,WeatherDisplay:10.37,2013-04-14 11:20:00,
2013-04-14 07:25:00,43.1,99.9,28.16,WNW,292,0.2,2.3,0,0.00,CLR,SKC,0.00,WeatherDisplay:10.37,2013-04-14 11:25:00,
2013-04-14 07:31:00,43.1,99.9,28.16,WNW,292,0.0,1.2,0,0.00,CLR,SKC,0.00,WeatherDisplay:10.37,2013-04-14 11:31:00,
2013-04-14 07:36:00,43.1,99.9,28.16,West,270,0.1,0.0,0,0.00,CLR,SKC,0.00,WeatherDisplay:10.37,2013-04-14 11:36:00,
2013-04-14 07:41:00,43.1,99.9,28.16,WSW,247,0.0,0.0,0,0.00,CLR,SKC,0.00,WeatherDisplay:10.37,2013-04-14 11:41:00,
2013-04-14 07:46:00,43.1,99.9,28.17,West,270,0.3,3.5,0,0.00,CLR,SKC,0.00,WeatherDisplay:10.37,2013-04-14 11:46:00,
2013-04-14 07:51:00,44.1,99.9,28.17,SW,225,0.4,3.5,0,0.00,CLR,SKC,0.00,WeatherDisplay:10.37,2013-04-14 11:51:00,
2013-04-14 07:56:00,44.1,99.9,28.17,WSW,247,0.8,2.3,0,0.00,CLR,SKC,0.00,WeatherDisplay:10.37,2013-04-14 11:56:00,
2013-04-14 08:01:00,44.1,99.9,28.17,WSW,247,2.4,8.0,0,0.00,CLR,SKC,0.00,WeatherDisplay:10.37,2013-04-14 12:01:00,
2013-04-14 08:06:00,45.1,99.9,28.17,South,180,1.1,3.5,0,0.00,CLR,SKC,0.00,WeatherDisplay:10.37,2013-04-14 12:06:00,
2013-04-14 08:11:00,45.1,99.9,28.17,WNW,292,0.3,2.3,0,0.00,CLR,SKC,0.00,WeatherDisplay:10.37,2013-04-14 12:11:00,
2013-04-14 08:16:00,46.1,99.9,28.17,SSW,202,1.1,5.8,0,0.00,CLR,SKC,0.00,WeatherDisplay:10.37,2013-04-14 12:16:00,
2013-04-14 08:21:00,46.1,99.9,28.17,West,270,2.9,7.0,0,0.00,CLR,SKC,0.00,WeatherDisplay:10.37,2013-04-14 12:21:00,
2013-04-14 08:26:00,47.1,99.9,28.16,West,270,2.5,4.6,0,0.00,CLR,SKC,0.00,WeatherDisplay:10.37,2013-04-14 12:26:00,
2013-04-14 08:31:00,47.1,99.9,28.16,WNW,292,0.7,3.5,0,0.00,CLR,SKC,0.00,WeatherDisplay:10.37,2013-04-14 12:31:00,
2013-04-14 08:37:00,47.1,99.9,28.16,WNW,292,1.3,3.5,0,0.00,CLR,SKC,0.00,WeatherDisplay:10.37,2013-04-14 12:37:00,
2013-04-14 08:42:00,47.1,99.9,28.16,SSW,202,4.0,4.0,0,0.00,CLR,SKC,0.00,WeatherDisplay:10.37,2013-04-14 12:42:00,
2013-04-14 08:47:00,47.1,99.9,28.17,SSW,202,4.6,8.1,0,0.00,CLR,SKC,0.00,WeatherDisplay:10.37,2013-04-14 12:47:00,
2013-04-14 08:52:00,47.1,99.9,28.17,WSW,247,0.8,6.9,0,0.00,CLR,SKC,0.00,WeatherDisplay:10.37,2013-04-14 12:52:00,
2013-04-14 08:57:00,47.1,99.9,28.17,WSW,247,4.2,6.0,0,0.00,CLR,SKC,0.00,WeatherDisplay:10.37,2013-04-14 12:57:00,
2013-04-14 09:02:00,47.1,99.9,28.17,SSW,202,1.8,8.1,0,0.00,CLR,SKC,0.00,WeatherDisplay:10.37,2013-04-14 13:02:00,
2013-04-14 09:07:00,47.1,99.9,28.17,SSW,202,0.9,3.5,0,0.00,CLR,SKC,0.00,WeatherDisplay:10.37,2013-04-14 13:07:00,
2013-04-14 09:12:00,48.1,99.9,28.17,West,270,2.0,6.0,0,0.00,CLR,SKC,0.00,WeatherDisplay:10.37,2013-04-14 13:12:00,
2013-04-14 09:17:00,48.1,99.9,28.17,SSW,202,5.5,6.9,0,0.00,CLR,SKC,0.00,WeatherDisplay:10.37,2013-04-14 13:17:00,
2013-04-14 09:22:00,48.1,99.9,28.17,SSW,202,1.6,6.0,0,0.00,CLR,SKC,0.00,WeatherDisplay:10.37,2013-04-14 13:22:00,
2013-04-14 09:27:00,48.1,99.9,28.17,WSW,247,4.0,10.4,0,0.00,CLR,SKC,0.00,WeatherDisplay:10.37,2013-04-14 13:27:00,
2013-04-14 09:32:00,48.1,99.9,28.17,SW,225,1.0,5.8,0,0.00,CLR,SKC,0.00,WeatherDisplay:10.37,2013-04-14 13:32:00,
2013-04-14 09:37:00,49.1,99.9,28.17,WSW,247,3.2,7.0,0,0.00,CLR,SKC,0.00,WeatherDisplay:10.37,2013-04-14 13:37:00,
2013-04-14 09:42:00,49.1,-48.0,28.17,WNW,292,5.6,9.2,1,0.00,CLR,SKC,0.00,WeatherDisplay:10.37,2013-04-14 13:42:00,
2013-04-14 09:47:00,49.1,-19.2,28.17,WNW,292,3.5,8.1,5,0.00,CLR,SKC,0.00,WeatherDisplay:10.37,2013-04-14 13:47:00,
2013-04-14 09:52:00,49.1,-1.5,28.17,WNW,292,4.0,8.1,12,0.00,CLR,SKC,0.00,WeatherDisplay:10.37,2013-04-14 13:52:00,
2013-04-14 09:57:00,49.1,6.1,28.17,SW,225,6.1,10.4,17,0.00,CLR,SKC,0.00,WeatherDisplay:10.37,2013-04-14 13:57:00,
2013-04-14 10:02:00,50.1,13.7,28.17,WNW,292,4.4,6.9,23,0.00,CLR,SKC,0.00,WeatherDisplay:10.37,2013-04-14 14:02:00,
2013-04-14 10:07:00,49.1,17.3,28.17,SSW,202,1.2,3.5,28,0.00,CLR,SKC,0.00,WeatherDisplay:10.37,2013-04-14 14:07:00,
2013-04-14 10:12:00,50.1,18.2,28.17,SW,225,0.5,3.5,28,0.00,CLR,SKC,0.00,WeatherDisplay:10.37,2013-04-14 14:12:00,
2013-04-14 10:17:00,50.1,19.8,28.17,WNW,292,3.5,7.0,30,0.00,CLR,SKC,0.00,WeatherDisplay:10.37,2013-04-14 14:17:00,
2013-04-14 10:22:00,50.1,21.3,28.17,West,270,5.3,10.4,32,0.00,CLR,SKC,0.00,WeatherDisplay:10.37,2013-04-14 14:22:00,
2013-04-14 10:27:00,51.1,22.9,28.17,WSW,247,5.0,10.4,33,0.00,CLR,SKC,0.00,WeatherDisplay:10.37,2013-04-14 14:27:00,
2013-04-14 10:32:00,50.1,30.6,28.17,West,270,4.1,10.4,47,0.00,CLR,SKC,0.00,WeatherDisplay:10.37,2013-04-14 14:32:00,
2013-04-14 10:37:00,50.1,30.6,28.17,WSW,247,5.5,9.2,47,0.00,CLR,SKC,0.00,WeatherDisplay:10.37,2013-04-14 14:37:00,
2013-04-14 10:42:00,50.1,31.1,28.17,WNW,292,3.6,6.9,48,0.00,CLR,SKC,0.00,WeatherDisplay:10.37,2013-04-14 14:42:00,
2013-04-14 10:47:00,50.1,31.1,28.17,WSW,247,3.5,8.1,48,0.00,CLR,SKC,0.00,WeatherDisplay:10.37,2013-04-14 14:47:00,
2013-04-14 10:52:00,50.1,31.6,28.17,WNW,292,4.8,9.2,49,0.00,CLR,SKC,0.00,WeatherDisplay:10.37,2013-04-14 14:52:00,
2013-04-14 10:57:00,50.1,31.6,28.17,WNW,292,3.9,6.9,49,0.00,CLR,SKC,0.00,WeatherDisplay:10.37,2013-04-14 14:57:00,
2013-04-14 11:02:00,51.1,32.1,28.16,WNW,292,1.6,3.5,48,0.00,CLR,SKC,0.00,WeatherDisplay:10.37,2013-04-14 15:02:00,
2013-04-14 11:07:00,51.1,32.6,28.16,NNW,337,0.3,3.5,49,0.00,CLR,SKC,0.00,WeatherDisplay:10.37,2013-04-14 15:07:00,
2013-04-14 11:12:00,51.1,34.1,28.17,West,270,1.5,4.0,52,0.00,CLR,SKC,0.00,WeatherDisplay:10.37,2013-04-14 15:12:00,
2013-04-14 11:17:00,51.1,33.1,28.17,West,270,4.0,6.9,50,0.00,CLR,SKC,0.00,WeatherDisplay:10.37,2013-04-14 15:17:00,
2013-04-14 11:22:00,51.1,34.5,28.17,NNW,337,2.4,4.6,53,0.00,CLR,SKC,0.00,WeatherDisplay:10.37,2013-04-14 15:22:00,
2013-04-14 11:27:00,51.1,34.1,28.17,SW,225,0.6,2.3,52,0.00,CLR,SKC,0.00,WeatherDisplay:10.37,2013-04-14 15:27:00,
2013-04-14 11:32:00,52.1,33.0,28.17,West,270,1.5,3.5,48,0.00,CLR,SKC,0.00,WeatherDisplay:10.37,2013-04-14 15:32:00,
2013-04-14 11:37:00,52.1,34.0,28.17,NNE,22,3.5,8.1,50,0.00,CLR,SKC,0.00,WeatherDisplay:10.37,2013-04-14 15:37:00,
2013-04-14 11:42:00,52.1,36.4,28.16,WSW,247,1.6,8.1,55,0.00,CLR,SKC,0.00,WeatherDisplay:10.37,2013-04-14 15:42:00,
2013-04-14 11:47:00,52.1,36.4,28.16,West,270,0.1,5.8,55,0.00,CLR,SKC,0.00,WeatherDisplay:10.37,2013-04-14 15:47:00,
2013-04-14 11:52:00,52.1,37.7,28.16,NNW,337,0.3,5.8,58,0.00,CLR,SKC,0.00,WeatherDisplay:10.37,2013-04-14 15:52:00,
2013-04-14 11:57:00,52.1,37.7,28.16,SSW,202,0.8,3.5,58,0.00,CLR,SKC,0.00,WeatherDisplay:10.37,2013-04-14 15:57:00,
2013-04-14 12:02:00,51.1,38.5,28.16,West,270,3.2,3.5,62,0.00,CLR,SKC,0.00,WeatherDisplay:10.37,2013-04-14 16:02:00,
2013-04-14 12:07:00,51.1,38.5,28.16,West,270,1.0,3.5,62,0.00,CLR,SKC,0.00,WeatherDisplay:10.37,2013-04-14 16:07:00,
2013-04-14 12:12:00,51.1,38.9,28.16,WSW,247,1.5,9.2,63,0.00,CLR,SKC,0.00,WeatherDisplay:10.37,2013-04-14 16:12:00,
2013-04-14 12:17:00,51.1,38.9,28.16,West,270,3.4,4.6,63,0.00,CLR,SKC,0.00,WeatherDisplay:10.37,2013-04-14 16:17:00,
2013-04-14 12:22:00,50.1,39.5,28.16,West,270,4.3,5.8,67,0.00,CLR,SKC,0.00,WeatherDisplay:10.37,2013-04-14 16:22:00,
2013-04-14 12:27:00,50.1,38.8,28.16,NNW,337,3.0,4.6,65,0.00,CLR,SKC,0.00,WeatherDisplay:10.37,2013-04-14 16:27:00,
2013-04-14 12:32:00,50.1,39.5,28.16,WNW,292,1.2,3.5,67,0.00,CLR,SKC,0.00,WeatherDisplay:10.37,2013-04-14 16:32:00,
2013-04-14 12:37:00,49.1,39.0,28.16,NW,315,3.4,5.0,68,0.00,CLR,SKC,0.00,WeatherDisplay:10.37,2013-04-14 16:37:00,
2013-04-14 12:42:00,49.1,39.3,28.16,NNW,337,0.6,2.3,69,0.00,CLR,SKC,0.00,WeatherDisplay:10.37,2013-04-14 16:42:00,
2013-04-14 12:47:00,49.1,39.0,28.16,NNW,337,1.6,3.5,68,0.00,CLR,SKC,0.00,WeatherDisplay:10.37,2013-04-14 16:47:00,
2013-04-14 12:52:00,49.1,39.0,28.16,NW,315,0.3,2.3,68,0.00,CLR,SKC,0.00,WeatherDisplay:10.37,2013-04-14 16:52:00,
2013-04-14 12:57:00,49.1,39.0,28.16,NW,315,3.5,8.1,68,0.00,CLR,SKC,0.00,WeatherDisplay:10.37,2013-04-14 16:57:00,
2013-04-14 13:02:00,49.1,39.7,28.16,West,270,0.0,10.4,70,0.00,CLR,SKC,0.00,WeatherDisplay:10.37,2013-04-14 17:02:00,
2013-04-14 13:07:00,48.1,38.8,28.16,WNW,292,2.1,5.8,70,0.00,CLR,SKC,0.00,WeatherDisplay:10.37,2013-04-14 17:07:00,
2013-04-14 13:12:00,48.1,39.1,28.17,WNW,292,2.6,6.9,71,0.00,CLR,SKC,0.00,WeatherDisplay:10.37,2013-04-14 17:12:00,
2013-04-14 13:17:00,48.1,39.1,28.17,NNW,337,5.4,6.9,71,0.00,CLR,SKC,0.00,WeatherDisplay:10.37,2013-04-14 17:17:00,
2013-04-14 13:22:00,48.1,39.5,28.17,WNW,292,3.5,5.8,72,0.00,CLR,SKC,0.00,WeatherDisplay:10.37,2013-04-14 17:22:00,
2013-04-14 13:27:00,47.1,38.5,28.17,NNW,337,1.3,3.5,72,0.00,CLR,SKC,0.00,WeatherDisplay:10.37,2013-04-14 17:27:00,
2013-04-14 13:32:00,47.1,38.5,28.18,NW,315,1.4,3.0,72,0.00,CLR,SKC,0.00,WeatherDisplay:10.37,2013-04-14 17:32:00,
2013-04-14 13:37:00,47.1,39.2,28.18,NW,315,3.4,9.2,74,0.00,CLR,SKC,0.00,WeatherDisplay:10.37,2013-04-14 17:37:00,
2013-04-14 13:42:00,46.1,38.6,28.18,North,360,0.1,1.2,75,0.00,CLR,SKC,0.00,WeatherDisplay:10.37,2013-04-14 17:42:00,
2013-04-14 13:47:00,46.1,37.9,28.18,West,270,0.0,2.3,73,0.00,CLR,SKC,0.00,WeatherDisplay:10.37,2013-04-14 17:47:00,
2013-04-14 13:53:00,46.1,37.6,28.18,WNW,292,1.2,3.5,72,0.00,CLR,SKC,0.00,WeatherDisplay:10.37,2013-04-14 17:53:00,
2013-04-14 13:58:00,46.1,36.8,28.18,WNW,292,0.0,3.5,70,0.00,CLR,SKC,0.00,WeatherDisplay:10.37,2013-04-14 17:58:00,
2013-04-14 14:03:00,46.1,36.5,28.18,North,360,0.0,0.0,69,0.00,CLR,SKC,0.00,WeatherDisplay:10.37,2013-04-14 18:03:00,
2013-04-14 14:08:00,47.1,35.9,28.18,WNW,292,0.0,1.0,65,0.00,CLR,SKC,0.00,WeatherDisplay:10.37,2013-04-14 18:08:00,
2013-04-14 14:13:00,47.1,34.3,28.18,NW,315,1.8,3.5,61,0.01,RA,SKC,0.01,WeatherDisplay:10.37,2013-04-14 18:13:00,
2013-04-14 14:18:00,47.1,34.7,28.18,West,270,1.4,3.5,62,0.01,RA,SKC,0.01,WeatherDisplay:10.37,2013-04-14 18:18:00,
2013-04-14 14:23:00,47.1,36.3,28.18,NNW,337,0.2,2.0,66,0.01,CLR,SKC,0.01,WeatherDisplay:10.37,2013-04-14 18:23:00,
2013-04-14 14:28:00,47.1,37.1,28.18,NNW,337,1.2,3.5,68,0.01,CLR,SKC,0.01,WeatherDisplay:10.37,2013-04-14 18:28:00,
2013-04-14 14:33:00,47.1,38.5,28.18,NNE,22,3.1,7.0,72,0.01,CLR,SKC,0.01,WeatherDisplay:10.37,2013-04-14 18:33:00,
2013-04-14 14:38:00,47.1,38.5,28.18,WNW,292,2.8,3.5,72,0.01,CLR,SKC,0.01,WeatherDisplay:10.37,2013-04-14 18:38:00,
2013-04-14 14:43:00,47.1,39.2,28.18,NW,315,1.8,3.5,74,0.01,CLR,SKC,0.01,WeatherDisplay:10.37,2013-04-14 18:43:00,
2013-04-14 14:48:00,47.1,39.6,28.18,WSW,247,0.9,3.5,75,0.01,CLR,SKC,0.01,WeatherDisplay:10.37,2013-04-14 18:48:00,
2013-04-14 14:53:00,47.1,40.2,28.18,NNW,337,0.3,3.5,77,0.01,CLR,SKC,0.01,WeatherDisplay:10.37,2013-04-14 18:53:00,
2013-04-14 14:58:00,47.1,39.9,28.18,NNW,337,0.8,2.0,76,0.01,CLR,SKC,0.01,WeatherDisplay:10.37,2013-04-14 18:58:00,
2013-04-14 15:03:00,48.1,41.2,28.17,WSW,247,1.0,3.5,77,0.01,CLR,SKC,0.01,WeatherDisplay:10.37,2013-04-14 19:03:00,
2013-04-14 15:08:00,49.1,43.5,28.17,SSW,202,0.0,0.0,81,0.01,CLR,SKC,0.01,WeatherDisplay:10.37,2013-04-14 19:08:00,
2013-04-14 15:13:00,50.1,44.1,28.17,East,90,0.0,0.0,80,0.00,CLR,SKC,0.01,WeatherDisplay:10.37,2013-04-14 19:13:00,
2013-04-14 15:18:00,50.1,44.8,28.17,West,270,1.6,6.9,82,0.00,CLR,SKC,0.01,WeatherDisplay:10.37,2013-04-14 19:18:00,
2013-04-14 15:23:00,49.1,42.2,28.18,West,270,2.6,4.6,77,0.00,CLR,SKC,0.01,WeatherDisplay:10.37,2013-04-14 19:23:00,
2013-04-14 15:28:00,50.1,43.1,28.18,WNW,292,2.7,8.1,77,0.00,CLR,SKC,0.01,WeatherDisplay:10.37,2013-04-14 19:28:00,
2013-04-14 15:33:00,51.1,44.1,28.17,WNW,292,0.8,3.5,77,0.00,CLR,SKC,0.01,WeatherDisplay:10.37,2013-04-14 19:33:00,
2013-04-14 15:38:00,50.1,41.8,28.17,WSW,247,0.0,0.0,73,0.00,CLR,SKC,0.01,WeatherDisplay:10.37,2013-04-14 19:38:00,
2013-04-14 15:43:00,50.1,41.4,28.17,WSW,247,0.3,2.3,72,0.00,CLR,SKC,0.01,WeatherDisplay:10.37,2013-04-14 19:43:00,
2013-04-14 15:48:00,50.1,40.7,28.17,WSW,247,5.9,11.5,70,0.00,CLR,SKC,0.01,WeatherDisplay:10.37,2013-04-14 19:48:00,
2013-04-14 15:53:00,50.1,41.0,28.17,WNW,292,1.0,3.5,71,0.00,CLR,SKC,0.01,WeatherDisplay:10.37,2013-04-14 19:53:00,
2013-04-14 15:58:00,50.1,42.1,28.17,WSW,247,0.7,3.5,74,0.00,CLR,SKC,0.01,WeatherDisplay:10.37,2013-04-14 19:58:00,
2013-04-14 16:03:00,50.1,42.5,28.18,WNW,292,4.1,6.9,75,0.00,CLR,SKC,0.01,WeatherDisplay:10.37,2013-04-14 20:03:00,
2013-04-14 16:08:00,50.1,42.1,28.18,SSW,202,3.4,9.2,74,0.00,CLR,SKC,0.01,WeatherDisplay:10.37,2013-04-14 20:08:00,
2013-04-14 16:13:00,50.1,41.8,28.18,NW,315,1.8,3.5,73,0.00,CLR,SKC,0.01,WeatherDisplay:10.37,2013-04-14 20:13:00,
2013-04-14 16:18:00,50.1,42.5,28.18,NNW,337,1.7,6.0,75,0.00,CLR,SKC,0.01,WeatherDisplay:10.37,2013-04-14 20:18:00,
2013-04-14 16:23:00,50.1,41.0,28.18,NNW,337,2.5,5.0,71,0.00,CLR,SKC,0.01,WeatherDisplay:10.37,2013-04-14 20:23:00,
2013-04-14 16:28:00,50.1,41.4,28.18,NW,315,2.2,4.6,72,0.00,CLR,SKC,0.01,WeatherDisplay:10.37,2013-04-14 20:28:00,
2013-04-14 16:33:00,49.1,40.1,28.18,NW,315,0.4,3.5,71,0.00,CLR,SKC,0.01,WeatherDisplay:10.37,2013-04-14 20:33:00,
2013-04-14 16:38:00,50.1,41.8,28.18,West,270,1.3,3.5,73,0.00,CLR,SKC,0.01,WeatherDisplay:10.37,2013-04-14 20:38:00,
2013-04-14 16:43:00,50.1,41.0,28.18,WNW,292,3.2,6.9,71,0.00,CLR,SKC,0.01,WeatherDisplay:10.37,2013-04-14 20:43:00,
2013-04-14 16:48:00,50.1,42.1,28.18,WNW,292,2.0,6.9,74,0.00,CLR,SKC,0.01,WeatherDisplay:10.37,2013-04-14 20:48:00,
2013-04-14 16:53:00,50.1,41.4,28.18,WSW,247,1.1,3.5,72,0.00,CLR,SKC,0.01,WeatherDisplay:10.37,2013-04-14 20:53:00,
2013-04-14 16:58:00,49.1,40.4,28.18,West,270,3.2,5.8,72,0.00,CLR,SKC,0.01,WeatherDisplay:10.37,2013-04-14 20:58:00,
2013-04-14 17:03:00,49.1,40.4,28.19,WNW,292,2.0,4.6,72,0.00,CLR,SKC,0.01,WeatherDisplay:10.37,2013-04-14 21:03:00,
2013-04-14 17:08:00,49.1,40.4,28.19,NNW,337,3.0,8.1,72,0.00,CLR,SKC,0.01,WeatherDisplay:10.37,2013-04-14 21:08:00,
2013-04-14 17:13:00,49.1,40.4,28.19,WNW,292,0.2,2.3,72,0.00,CLR,SKC,0.01,WeatherDisplay:10.37,2013-04-14 21:13:00,
2013-04-14 17:18:00,49.1,41.5,28.19,NNW,337,0.2,3.5,75,0.00,CLR,SKC,0.01,WeatherDisplay:10.37,2013-04-14 21:18:00,
2013-04-14 17:23:00,49.1,40.1,28.19,WNW,292,0.6,3.5,71,0.00,CLR,SKC,0.01,WeatherDisplay:10.37,2013-04-14 21:23:00,
2013-04-14 17:28:00,50.1,41.8,28.19,WSW,247,2.3,4.0,73,0.00,CLR,SKC,0.01,WeatherDisplay:10.37,2013-04-14 21:28:00,
2013-04-14 17:33:00,50.1,40.7,28.20,NE,45,0.8,3.5,70,0.00,CLR,SKC,0.01,WeatherDisplay:10.37,2013-04-14 21:33:00,
2013-04-14 17:38:00,50.1,40.7,28.20,NW,315,2.1,8.1,70,0.00,CLR,SKC,0.01,WeatherDisplay:10.37,2013-04-14 21:38:00,
2013-04-14 17:43:00,49.1,39.7,28.20,NW,315,2.5,3.5,70,0.00,CLR,SKC,0.01,WeatherDisplay:10.37,2013-04-14 21:43:00,
2013-04-14 17:48:00,48.1,39.1,28.20,WNW,292,1.1,5.8,71,0.00,CLR,SKC,0.01,WeatherDisplay:10.37,2013-04-14 21:48:00,
2013-04-14 17:53:00,48.1,40.2,28.20,NNW,337,0.4,1.2,74,0.00,CLR,SKC,0.01,WeatherDisplay:10.37,2013-04-14 21:53:00,
2013-04-14 17:59:00,48.1,40.9,28.20,NNW,337,3.8,10.4,76,0.00,CLR,SKC,0.01,WeatherDisplay:10.37,2013-04-14 21:59:00,
2013-04-14 18:04:00,47.1,39.9,28.21,WNW,292,1.3,4.6,76,0.00,CLR,SKC,0.01,WeatherDisplay:10.37,2013-04-14 22:04:00,
2013-04-14 18:09:00,47.1,40.6,28.21,WNW,292,1.0,3.5,78,0.00,CLR,SKC,0.01,WeatherDisplay:10.37,2013-04-14 22:09:00,
2013-04-14 18:14:00,47.1,41.2,28.22,NW,315,0.5,6.9,80,0.00,CLR,SKC,0.01,WeatherDisplay:10.37,2013-04-14 22:14:00,
2013-04-14 18:19:00,48.1,41.9,28.22,West,270,2.7,8.1,79,0.00,CLR,SKC,0.01,WeatherDisplay:10.37,2013-04-14 22:19:00,
2013-04-14 18:24:00,48.1,41.9,28.24,West,270,1.5,9.2,79,0.00,CLR,SKC,0.01,WeatherDisplay:10.37,2013-04-14 22:24:00,
2013-04-14 18:29:00,48.1,41.2,28.24,NW,315,3.3,9.2,77,0.00,CLR,SKC,0.01,WeatherDisplay:10.37,2013-04-14 22:29:00,
2013-04-14 18:34:00,47.1,40.9,28.25,WSW,247,0.8,2.3,79,0.00,CLR,SKC,0.01,WeatherDisplay:10.37,2013-04-14 22:34:00,
2013-04-14 18:39:00,47.1,40.9,28.25,WNW,292,0.9,4.0,79,0.00,CLR,SKC,0.01,WeatherDisplay:10.37,2013-04-14 22:39:00,
2013-04-14 18:44:00,46.1,40.3,28.25,NW,315,2.8,8.0,80,0.00,CLR,SKC,0.01,WeatherDisplay:10.37,2013-04-14 22:44:00,
2013-04-14 18:49:00,46.1,40.6,28.25,WNW,292,1.8,7.0,81,0.00,CLR,SKC,0.01,WeatherDisplay:10.37,2013-04-14 22:49:00,
2013-04-14 18:54:00,46.1,40.6,28.26,WSW,247,2.9,5.8,81,0.00,CLR,SKC,0.01,WeatherDisplay:10.37,2013-04-14 22:54:00,
2013-04-14 18:59:00,46.1,40.6,28.26,NW,315,1.9,3.5,81,0.00,CLR,SKC,0.01,WeatherDisplay:10.37,2013-04-14 22:59:00,
2013-04-14 19:04:00,45.1,39.9,28.27,West,270,0.5,3.5,82,0.00,CLR,SKC,0.01,WeatherDisplay:10.37,2013-04-14 23:04:00,
2013-04-14 19:09:00,46.1,41.2,28.27,WNW,292,2.0,9.2,83,0.00,CLR,SKC,0.01,WeatherDisplay:10.37,2013-04-14 23:09:00,
2013-04-14 19:14:00,45.1,40.2,28.27,ENE,67,3.4,8.1,83,0.00,CLR,SKC,0.01,WeatherDisplay:10.37,2013-04-14 23:14:00,
2013-04-14 19:19:00,45.1,40.5,28.27,NNW,337,2.4,6.9,84,0.00,CLR,SKC,0.01,WeatherDisplay:10.37,2013-04-14 23:19:00,
2013-04-14 19:24:00,45.1,40.5,28.27,WNW,292,3.3,6.9,84,0.00,CLR,SKC,0.01,WeatherDisplay:10.37,2013-04-14 23:24:00,
2013-04-14 19:29:00,45.1,40.5,28.27,NNW,337,1.7,5.8,84,0.00,CLR,SKC,0.01,WeatherDisplay:10.37,2013-04-14 23:29:00,
2013-04-14 19:34:00,45.1,40.5,28.28,WNW,292,2.0,4.6,84,0.00,CLR,SKC,0.01,WeatherDisplay:10.37,2013-04-14 23:34:00,
2013-04-14 19:39:00,45.1,40.8,28.28,West,270,1.9,5.8,85,0.00,CLR,SKC,0.01,WeatherDisplay:10.37,2013-04-14 23:39:00,
2013-04-14 19:44:00,45.1,40.8,28.28,West,270,3.3,9.2,85,0.00,CLR,SKC,0.01,WeatherDisplay:10.37,2013-04-14 23:44:00,
2013-04-14 19:49:00,45.1,40.8,28.28,WNW,292,3.2,8.1,85,0.00,CLR,SKC,0.01,WeatherDisplay:10.37,2013-04-14 23:49:00,
2013-04-14 19:54:00,45.1,40.8,28.30,WNW,292,4.5,9.2,85,0.00,CLR,SKC,0.01,WeatherDisplay:10.37,2013-04-14 23:54:00,
2013-04-14 19:59:00,45.1,40.8,28.30,NW,315,4.5,8.1,85,0.00,CLR,SKC,0.01,WeatherDisplay:10.37,2013-04-14 23:59:00,
2013-04-14 20:04:00,44.1,40.2,28.30,NW,315,2.5,6.9,86,0.00,CLR,SKC,0.01,WeatherDisplay:10.37,2013-04-15 00:04:00,
2013-04-14 20:09:00,44.1,40.2,28.30,WNW,292,6.4,9.2,86,0.00,CLR,SKC,0.01,WeatherDisplay:10.37,2013-04-15 00:09:00,
2013-04-14 20:14:00,44.1,40.2,28.30,WNW,292,4.6,8.1,86,0.00,CLR,SKC,0.01,WeatherDisplay:10.37,2013-04-15 00:14:00,
2013-04-14 20:19:00,44.1,39.9,28.30,NNW,337,0.8,5.8,85,0.00,CLR,SKC,0.01,WeatherDisplay:10.37,2013-04-15 00:19:00,
2013-04-14 20:24:00,44.1,39.9,28.31,NW,315,2.8,8.1,85,0.00,CLR,SKC,0.01,WeatherDisplay:10.37,2013-04-15 00:24:00,
2013-04-14 20:29:00,44.1,39.9,28.31,East,90,2.7,5.8,85,0.00,CLR,SKC,0.01,WeatherDisplay:10.37,2013-04-15 00:29:00,
2013-04-14 20:34:00,44.1,39.9,28.32,NNW,337,1.0,3.5,85,0.00,CLR,SKC,0.01,WeatherDisplay:10.37,2013-04-15 00:34:00,
2013-04-14 20:39:00,44.1,39.6,28.32,NW,315,0.9,8.1,84,0.00,CLR,SKC,0.01,WeatherDisplay:10.37,2013-04-15 00:39:00,
2013-04-14 20:44:00,44.1,39.6,28.32,WNW,292,1.7,8.1,84,0.00,CLR,SKC,0.01,WeatherDisplay:10.37,2013-04-15 00:44:00,
2013-04-14 20:49:00,44.1,39.6,28.32,WNW,292,2.2,6.0,84,0.00,CLR,SKC,0.01,WeatherDisplay:10.37,2013-04-15 00:49:00,
2013-04-14 20:54:00,44.1,39.6,28.32,NW,315,4.0,4.6,84,0.00,CLR,SKC,0.01,WeatherDisplay:10.37,2013-04-15 00:54:00,
2013-04-14 20:59:00,44.1,39.9,28.32,WNW,292,1.9,3.0,85,0.00,CLR,SKC,0.01,WeatherDisplay:10.37,2013-04-15 00:59:00,
2013-04-14 21:05:00,43.1,38.6,28.34,NW,314,1.0,7.0,84,0.00,CLR,SKC,0.01,WeatherDisplay:10.37,2013-04-15 01:05:00,
2013-04-14 21:10:00,44.1,39.9,28.34,NW,307,5.0,13.0,85,0.00,CLR,SKC,0.01,WeatherDisplay:10.37,2013-04-15 01:10:00,
2013-04-14 21:15:00,43.1,38.6,28.34,WNW,292,4.1,8.1,84,0.00,CLR,SKC,0.01,WeatherDisplay:10.37,2013-04-15 01:15:00,
2013-04-14 21:20:00,43.1,38.9,28.34,WNW,292,1.0,3.5,85,0.00,CLR,SKC,0.01,WeatherDisplay:10.37,2013-04-15 01:20:00,
2013-04-14 21:25:00,44.1,40.5,28.34,WSW,247,2.1,6.9,87,0.00,CLR,SKC,0.01,WeatherDisplay:10.37,2013-04-15 01:25:00,
2013-04-14 21:30:00,43.1,39.2,28.34,WNW,292,1.0,5.0,86,0.00,CLR,SKC,0.01,WeatherDisplay:10.37,2013-04-15 01:30:00,
2013-04-14 21:35:00,43.1,39.2,28.35,WNW,292,0.8,2.3,86,0.00,CLR,SKC,0.01,WeatherDisplay:10.37,2013-04-15 01:35:00,
2013-04-14 21:40:00,43.1,39.2,28.35,NW,315,1.2,3.5,86,0.00,CLR,SKC,0.01,WeatherDisplay:10.37,2013-04-15 01:40:00,
2013-04-14 21:45:00,43.1,39.2,28.35,WNW,292,1.9,5.8,86,0.00,CLR,SKC,0.01,WeatherDisplay:10.37,2013-04-15 01:45:00,
2013-04-14 21:50:00,43.1,38.9,28.35,West,270,4.2,8.1,85,0.00,CLR,SKC,0.01,WeatherDisplay:10.37,2013-04-15 01:50:00,
2013-04-14 21:55:00,43.1,38.9,28.36,WNW,292,0.0,0.0,85,0.00,CLR,SKC,0.01,WeatherDisplay:10.37,2013-04-15 01:55:00,
2013-04-14 22:00:00,43.1,38.9,28.36,WNW,292,0.1,0.0,85,0.00,CLR,SKC,0.01,WeatherDisplay:10.37,2013-04-15 02:00:00,
2013-04-14 22:05:00,42.1,37.6,28.36,WNW,292,1.5,6.9,84,0.00,CLR,SKC,0.01,WeatherDisplay:10.37,2013-04-15 02:05:00,
2013-04-14 22:10:00,43.1,38.3,28.36,NW,315,1.8,8.1,83,0.00,CLR,SKC,0.01,WeatherDisplay:10.37,2013-04-15 02:10:00,
2013-04-14 22:15:00,43.1,38.3,28.36,NNW,337,1.4,3.5,83,0.00,CLR,SKC,0.01,WeatherDisplay:10.37,2013-04-15 02:15:00,
2013-04-14 22:20:00,42.1,37.0,28.36,NNW,337,0.2,1.2,82,0.00,CLR,SKC,0.01,WeatherDisplay:10.37,2013-04-15 02:20:00,
2013-04-14 22:25:00,42.1,37.0,28.36,WNW,292,1.7,3.5,82,0.00,CLR,SKC,0.01,WeatherDisplay:10.37,2013-04-15 02:25:00,
2013-04-14 22:30:00,42.1,37.0,28.36,North,360,1.1,3.5,82,0.00,CLR,SKC,0.01,WeatherDisplay:10.37,2013-04-15 02:30:00,
2013-04-14 22:35:00,41.1,36.0,28.36,West,270,0.0,1.2,82,0.00,CLR,SKC,0.01,WeatherDisplay:10.37,2013-04-15 02:35:00,
2013-04-14 22:40:00,41.1,36.0,28.36,NNW,337,0.2,1.2,82,0.00,CLR,SKC,0.01,WeatherDisplay:10.37,2013-04-15 02:40:00,
2013-04-14 22:45:00,41.1,36.0,28.35,WNW,292,0.0,0.0,82,0.00,CLR,SKC,0.01,WeatherDisplay:10.37,2013-04-15 02:45:00,
2013-04-14 22:50:00,41.1,35.7,28.35,NNW,337,0.2,3.0,81,0.00,CLR,SKC,0.01,WeatherDisplay:10.37,2013-04-15 02:50:00,
2013-04-14 22:55:00,41.1,35.7,28.35,WSW,247,0.0,0.0,81,0.00,CLR,SKC,0.01,WeatherDisplay:10.37,2013-04-15 02:55:00,
2013-04-14 23:00:00,41.1,35.4,28.35,NW,315,0.0,0.0,80,0.00,CLR,SKC,0.01,WeatherDisplay:10.37,2013-04-15 03:00:00,
2013-04-14 23:05:00,41.1,35.4,28.35,NW,315,0.5,3.5,80,0.00,CLR,SKC,0.01,WeatherDisplay:10.37,2013-04-15 03:05:00,
2013-04-14 23:10:00,41.1,35.1,28.35,NW,315,1.1,3.5,79,0.00,CLR,SKC,0.01,WeatherDisplay:10.37,2013-04-15 03:10:00,
2013-04-14 23:15:00,40.1,33.8,28.36,NNW,337,0.4,2.3,78,0.00,CLR,SKC,0.01,WeatherDisplay:10.37,2013-04-15 03:15:00,
2013-04-14 23:20:00,41.1,34.1,28.36,NW,315,0.6,3.5,76,0.00,CLR,SKC,0.01,WeatherDisplay:10.37,2013-04-15 03:20:00,
2013-04-14 23:25:00,40.1,33.1,28.36,WNW,292,0.7,3.5,76,0.00,CLR,SKC,0.01,WeatherDisplay:10.37,2013-04-15 03:25:00,
2013-04-14 23:30:00,40.1,32.8,28.36,WNW,292,0.0,0.0,75,0.00,CLR,SKC,0.01,WeatherDisplay:10.37,2013-04-15 03:30:00,
2013-04-14 23:35:00,40.1,32.1,28.36,West,270,0.3,3.5,73,0.00,CLR,SKC,0.01,WeatherDisplay:10.37,2013-04-15 03:35:00,
2013-04-14 23:40:00,40.1,31.1,28.36,NNW,337,1.3,3.5,70,0.00,CLR,SKC,0.01,WeatherDisplay:10.37,2013-04-15 03:40:00,
2013-04-14 23:45:00,40.1,30.4,28.36,West,270,0.5,3.0,68,0.00,CLR,SKC,0.01,WeatherDisplay:10.37,2013-04-15 03:45:00,
2013-04-14 23:50:00,40.1,28.9,28.36,WNW,292,0.0,0.0,64,0.00,CLR,SKC,0.01,WeatherDisplay:10.37,2013-04-15 03:50:00,
2013-04-14 23:55:00,40.1,28.5,28.37,West,270,0.8,3.5,63,0.00,CLR,SKC,0.01,WeatherDisplay:10.37,2013-04-15 03:55:00,